Time;durP1;ratioP1;P1;durP2;ratioP2;P2;SDS_P1;SDS_P2;PMS_P1;PMS_P2;Temp;Humidity;BMP_temperature;BMP_pressure;BME280_temperature;BME280_humidity;BME280_pressure;Samples;Min_cycle;Max_cycle;Signal;HPM_P1;HPM_P2
2022/04/06 00:03:46;;;;;;;34.67;20.27;;;;;;;3.58;61.71;97303.41;10377960;28;20125;-62
2022/04/06 00:08:44;;;;;;;30.25;17.52;;;;;;;3.47;62.21;97303.19;10378066;28;20040;-62
2022/04/06 00:13:43;;;;;;;34.58;18.75;;;;;;;3.38;62.26;97305.59;10378336;28;20473;-62
2022/04/06 00:18:43;;;;;;;32.42;18.95;;;;;;;3.30;62.26;97299.44;10368739;28;20041;-62
2022/04/06 00:23:42;;;;;;;35.05;18.55;;;;;;;3.21;62.54;97297.53;10377532;28;20072;-61
2022/04/06 00:28:40;;;;;;;35.95;20.77;;;;;;;3.12;62.64;97297.34;10377532;28;20029;-62
2022/04/06 00:33:39;;;;;;;42.10;22.55;;;;;;;2.77;62.99;97241.13;10376829;28;20033;-62
2022/04/06 00:38:39;;;;;;;41.30;23.33;;;;;;;3.08;62.73;97304.13;10376577;28;20540;-62
2022/04/06 00:43:38;;;;;;;40.17;24.17;;;;;;;3.01;63.22;97308.25;10376758;28;20068;-62
2022/04/06 00:48:37;;;;;;;32.28;19.42;;;;;;;2.98;63.26;97310.75;10367542;28;20497;-62
2022/04/06 00:53:36;;;;;;;58.70;29.70;;;;;;;2.13;64.50;97190.19;10376677;28;20072;-62
2022/04/06 00:58:36;;;;;;;68.88;34.67;;;;;;;2.40;64.67;97244.56;10375839;28;20060;-62
2022/04/06 01:03:35;;;;;;;23.95;14.60;;;;;;;2.66;65.00;97301.50;10375796;28;20060;-62
2022/04/06 01:08:34;;;;;;;31.48;17.00;;;;;;;1.91;64.87;97204.19;10376197;28;20037;-61
2022/04/06 01:13:33;;;;;;;175.45;62.78;;;;;;;1.98;64.95;97224.81;10375388;28;20052;-62
2022/04/06 01:18:32;;;;;;;43.28;21.05;;;;;;;2.08;65.04;97245.53;10366923;28;20037;-62
2022/04/06 01:23:31;;;;;;;;;;;;;;;2.34;65.74;97306.72;10375680;28;20064;-62
2022/04/06 01:28:30;;;;;;;26.25;14.13;;;;;;;2.25;65.91;97306.50;10375168;28;19915;-62
2022/04/06 01:33:29;;;;;;;25.90;14.98;;;;;;;2.15;66.48;97302.84;10374815;28;20466;-62
2022/04/06 01:38:29;;;;;;;;;;;;;;;2.14;66.92;97304.53;10375269;28;20068;-62
2022/04/06 01:43:28;;;;;;;24.27;13.75;;;;;;;1.64;66.27;97224.81;10374438;28;20373;-62
2022/04/06 01:48:27;;;;;;;21.05;13.25;;;;;;;2.15;66.87;97320.75;10364633;28;20103;-62
2022/04/06 01:53:26;;;;;;;27.65;15.18;;;;;;;2.11;67.24;97316.38;10373864;28;20032;-62
2022/04/06 01:58:25;;;;;;;23.25;14.05;;;;;;;1.88;66.89;97268.06;10373750;28;20471;-62
2022/04/06 02:03:24;;;;;;;28.02;16.50;;;;;;;2.04;67.80;97307.69;10373313;28;20578;-62
2022/04/06 02:08:24;;;;;;;30.10;15.60;;;;;;;2.04;67.82;97312.81;10372586;28;20413;-62
2022/04/06 02:13:23;;;;;;;33.90;16.98;;;;;;;2.01;68.00;97307.63;10373235;28;20060;-62
2022/04/06 02:18:22;;;;;;;32.33;18.00;;;;;;;1.65;68.02;97261.50;10373166;28;20036;-62
2022/04/06 02:23:22;;;;;;;34.80;17.30;;;;;;;1.88;68.15;97311.56;10363509;28;20465;-62
2022/04/06 02:28:21;;;;;;;34.10;17.23;;;;;;;1.81;68.41;97311.34;10372590;28;20071;-62
2022/04/06 02:33:20;;;;;;;31.52;15.02;;;;;;;1.76;68.40;97316.34;10373065;28;20463;-62
2022/04/06 02:38:19;;;;;;;29.60;15.63;;;;;;;1.72;68.48;97319.66;10372462;28;20565;-62
2022/04/06 02:43:18;;;;;;;27.75;14.32;;;;;;;1.63;68.85;97325.41;10372481;28;20493;-62
2022/04/06 02:48:17;;;;;;;26.65;12.95;;;;;;;1.52;68.89;97314.88;10372512;28;20053;-62
2022/04/06 02:53:16;;;;;;;33.63;18.38;;;;;;;1.60;68.96;97327.00;10363049;28;20497;-62
2022/04/06 02:58:15;;;;;;;29.30;13.82;;;;;;;1.38;69.09;97295.72;10370930;28;20429;-62
2022/04/06 03:03:14;;;;;;;42.78;24.27;;;;;;;1.48;69.29;97323.28;10374218;28;20061;-62
2022/04/06 03:08:13;;;;;;;52.28;29.38;;;;;;;1.30;70.03;97305.75;10379795;28;20024;-62
2022/04/06 03:13:12;;;;;;;40.65;22.73;;;;;;;0.99;69.85;97264.81;10380284;28;20056;-62
2022/04/06 03:18:11;;;;;;;40.70;23.20;;;;;;;1.10;69.79;97284.72;10380296;28;20039;-62
2022/04/06 03:23:10;;;;;;;40.97;21.55;;;;;;;1.04;69.72;97283.72;10370479;28;20064;-61
2022/04/06 03:28:09;;;;;;;45.10;22.42;;;;;;;1.33;69.68;97341.59;10379638;28;20538;-62
2022/04/06 03:33:09;;;;;;;;;;;;;;;1.33;69.48;97350.97;10378917;28;20072;-62
2022/04/06 03:38:08;;;;;;;53.60;27.48;;;;;;;1.30;69.73;97346.66;10379239;28;19954;-61
2022/04/06 03:43:07;;;;;;;49.55;25.00;;;;;;;0.45;69.75;97219.81;10378980;28;20090;-62
2022/04/06 03:48:06;;;;;;;38.88;22.95;;;;;;;1.23;69.97;97354.97;10379210;28;20519;-62
2022/04/06 03:53:05;;;;;;;36.65;20.38;;;;;;;1.23;69.74;97349.84;10370132;28;20063;-62
2022/04/06 03:58:04;;;;;;;;;;;;;;;1.24;70.06;97351.56;10379346;28;20529;-62
2022/04/06 04:03:05;;;;;;;43.28;21.45;;;;;;;1.22;70.45;97357.47;10377753;28;19913;-62
2022/04/06 04:08:05;;;;;;;65.38;36.33;;;;;;;1.17;70.64;97369.25;10377528;28;20064;-62
2022/04/06 04:13:04;;;;;;;64.15;34.78;;;;;;;0.91;70.38;97331.00;10378108;28;20064;-62
2022/04/06 04:18:03;;;;;;;54.65;31.58;;;;;;;1.22;70.44;97378.78;10376927;28;20580;-62
2022/04/06 04:23:03;;;;;;;44.15;26.27;;;;;;;1.26;70.40;97407.84;10368617;28;20072;-62
2022/04/06 04:28:02;;;;;;;39.25;21.05;;;;;;;1.17;70.83;97380.31;10377375;28;20068;-62
2022/04/06 04:33:01;;;;;;;43.58;27.33;;;;;;;1.17;70.91;97389.69;10377417;28;20414;-62
2022/04/06 04:38:00;;;;;;;45.30;27.80;;;;;;;1.25;70.66;97394.22;10377245;28;20060;-62
2022/04/06 04:42:59;;;;;;;53.40;28.02;;;;;;;1.36;70.47;97412.41;10358148;28;20064;-62
2022/04/06 04:47:59;;;;;;;41.63;24.73;;;;;;;1.42;70.68;97417.72;10328820;28;20041;-62
2022/04/06 04:52:58;;;;;;;33.08;18.23;;;;;;;1.55;70.74;97418.91;10340955;28;20064;-62
2022/04/06 04:57:57;;;;;;;40.45;22.42;;;;;;;1.48;70.54;97402.56;10331184;28;20030;-62
2022/04/06 05:02:56;;;;;;;76.22;39.00;;;;;;;1.80;70.48;97422.19;10327546;28;20756;-62
2022/04/06 05:07:57;;;;;;;44.33;24.90;;;;;;;1.93;70.33;97437.06;10334128;28;20037;-62
2022/04/06 05:12:56;;;;;;;46.67;26.33;;;;;;;2.10;70.11;97440.94;10334081;28;20486;-62
2022/04/06 05:17:55;;;;;;;54.05;28.42;;;;;;;2.29;69.89;97433.75;10334104;28;20525;-62
2022/04/06 05:22:54;;;;;;;58.33;33.50;;;;;;;2.46;69.77;97427.38;10332260;28;20057;-62
2022/04/06 05:27:55;;;;;;;72.57;43.35;;;;;;;2.50;68.28;97408.69;10332470;28;20029;-62
2022/04/06 05:32:55;;;;;;;80.35;44.42;;;;;;;3.02;68.19;97458.63;10329672;28;20509;-62
2022/04/06 05:37:57;;;;;;;84.15;48.35;;;;;;;3.25;67.95;97460.88;10333541;28;20122;-62
2022/04/06 05:42:56;;;;;;;86.65;49.38;;;;;;;3.51;67.47;97460.59;10333007;28;20378;-62
2022/04/06 05:47:56;;;;;;;79.65;46.67;;;;;;;3.34;66.39;97409.81;10332724;28;20085;-62
2022/04/06 05:53:03;;;;;;;69.05;46.00;;;;;;;3.93;65.87;97444.38;10407904;28;20407;-61
2022/04/06 05:58:03;;;;;;;72.20;46.20;;;;;;;4.01;64.96;97424.84;10408047;28;20482;-61
2022/04/06 06:03:01;;;;;;;61.03;40.40;;;;;;;4.49;64.10;97455.72;10407503;28;20056;-61
2022/04/06 06:08:00;;;;;;;39.08;26.67;;;;;;;4.77;63.10;97468.22;10407845;28;20107;-61
2022/04/06 06:12:59;;;;;;;40.63;24.40;;;;;;;5.02;62.54;97457.53;10405307;28;20020;-61
2022/04/06 06:17:58;;;;;;;49.70;31.52;;;;;;;5.26;62.04;97457.03;10403740;28;20040;-61
2022/04/06 06:22:57;;;;;;;39.92;27.20;;;;;;;5.19;61.17;97408.06;10403941;28;20029;-61
2022/04/06 06:27:56;;;;;;;37.85;25.08;;;;;;;5.31;61.49;97397.94;10403082;28;20063;-61
2022/04/06 06:32:55;;;;;;;73.43;50.33;;;;;;;5.93;60.46;97467.41;10399033;28;20028;-61
2022/04/06 06:37:56;;;;;;;44.33;27.95;;;;;;;6.16;59.75;97444.50;10399652;28;20063;-61
2022/04/06 06:42:55;;;;;;;38.00;24.15;;;;;;;6.43;58.76;97463.69;10399988;28;20063;-61
2022/04/06 06:47:54;;;;;;;31.90;20.95;;;;;;;6.05;57.42;97355.06;10402849;28;20033;-61
2022/04/06 06:52:53;;;;;;;27.48;19.35;;;;;;;6.89;55.98;97458.09;10401477;28;20075;-61
2022/04/06 06:57:52;;;;;;;24.75;16.15;;;;;;;6.58;55.11;97362.41;10401751;28;20035;-61
2022/04/06 07:02:51;;;;;;;19.70;11.75;;;;;;;7.02;53.51;97390.28;10383744;28;20056;-61
2022/04/06 07:07:52;;;;;;;15.98;10.57;;;;;;;7.57;52.00;97449.16;10374848;28;20060;-61
2022/04/06 07:12:52;;;;;;;18.15;12.13;;;;;;;7.89;51.29;97449.34;10375300;28;20060;-61
2022/04/06 07:17:56;;;;;;;17.38;12.15;;;;;;;8.22;50.86;97446.00;10374765;28;20053;-62
2022/04/06 07:22:55;;;;;;;13.15;10.45;;;;;;;7.96;51.10;97345.16;10375363;28;20597;-61
2022/04/06 07:27:54;;;;;;;15.73;11.10;;;;;;;8.47;50.81;97387.47;10374742;28;20123;-61
2022/04/06 07:32:54;;;;;;;17.33;10.57;;;;;;;9.07;50.40;97436.69;10374726;28;20071;-61
2022/04/06 07:37:53;;;;;;;13.95;9.85;;;;;;;9.40;49.56;97431.53;10374202;28;20064;-61
2022/04/06 07:42:52;;;;;;;15.52;10.32;;;;;;;9.67;47.54;97430.56;10374446;28;20469;-61
2022/04/06 07:47:53;;;;;;;19.65;11.27;;;;;;;9.91;45.05;97414.97;10373870;28;20053;-61
2022/04/06 07:52:53;;;;;;;16.30;10.75;;;;;;;10.14;44.75;97417.47;10374350;28;20072;-62
2022/04/06 07:57:52;;;;;;;;;;;;;;;10.39;43.89;97422.50;10375259;28;20312;-62
2022/04/06 08:02:51;;;;;;;18.45;10.50;;;;;;;10.29;44.16;97368.97;10374594;28;20231;-61
2022/04/06 08:07:53;;;;;;;16.30;7.97;;;;;;;10.98;43.02;97417.81;10374201;28;20067;-62
2022/04/06 08:12:52;;;;;;;11.80;7.03;;;;;;;10.95;42.40;97359.00;10373900;28;20064;-62
2022/04/06 08:17:51;;;;;;;7.97;5.43;;;;;;;11.52;41.97;97409.53;10374353;28;20043;-62
2022/04/06 08:22:50;;;;;;;11.82;6.32;;;;;;;11.94;41.14;97415.13;10373776;28;20099;-62
2022/04/06 08:27:49;;;;;;;9.70;6.60;;;;;;;12.17;40.53;97371.47;10373546;28;20052;-62
2022/04/06 08:32:48;;;;;;;11.07;5.60;;;;;;;12.84;38.41;97403.50;10371830;28;20029;-62
2022/04/06 08:37:47;;;;;;;9.60;5.45;;;;;;;13.15;38.37;97396.06;10355220;28;20454;-62
2022/04/06 08:42:47;;;;;;;13.55;7.38;;;;;;;13.56;38.07;97397.09;10373260;28;20033;-62
2022/04/06 08:47:47;;;;;;;10.88;5.30;;;;;;;13.72;35.31;97376.78;10372942;28;20064;-62
2022/04/06 08:52:48;;;;;;;10.40;4.25;;;;;;;13.77;32.37;97350.63;10370869;28;20518;-62
2022/04/06 08:57:47;;;;;;;5.40;3.72;;;;;;;14.37;31.31;97384.13;10370993;28;20474;-62
2022/04/06 09:02:46;;;;;;;5.57;3.25;;;;;;;14.37;30.58;97321.50;10367857;28;20446;-62
2022/04/06 09:07:51;;;;;;;7.30;3.50;;;;;;;15.13;30.70;97370.22;10368330;28;20064;-62
2022/04/06 09:12:50;;;;;;;6.38;3.20;;;;;;;15.36;29.49;97363.50;10368282;28;20482;-62
2022/04/06 09:17:50;;;;;;;6.18;3.28;;;;;;;15.58;28.21;97361.19;10371534;28;20355;-62
2022/04/06 09:22:49;;;;;;;10.57;4.80;;;;;;;15.37;28.92;97278.97;10371229;28;20060;-62
2022/04/06 09:27:48;;;;;;;4.00;2.55;;;;;;;15.76;27.63;97302.25;10371287;28;20028;-62
2022/04/06 09:32:48;;;;;;;5.63;3.30;;;;;;;16.28;27.09;97333.00;10370778;28;20104;-62
2022/04/06 09:37:47;;;;;;;3.08;2.20;;;;;;;16.54;26.56;97333.09;10369845;28;20060;-62
2022/04/06 09:42:52;;;;;;;;;;;;;;;16.56;27.30;97332.16;10372108;28;20020;-62
2022/04/06 09:47:53;;;;;;;1.60;1.50;;;;;;;16.54;27.33;97320.00;10371317;28;20382;-62
2022/04/06 09:52:56;;;;;;;5.57;2.10;;;;;;;16.92;27.91;97314.38;10371125;28;20077;-62
2022/04/06 09:57:58;;;;;;;1.17;0.90;;;;;;;17.08;27.67;97288.50;10371214;28;20057;-62
2022/04/06 10:03:06;;;;;;;3.42;1.55;;;;;;;17.21;27.50;97296.78;10371270;28;20052;-62
2022/04/06 10:08:07;;;;;;;2.28;1.20;;;;;;;17.16;27.51;97274.28;10371018;28;20060;-62
2022/04/06 10:13:07;;;;;;;1.90;1.40;;;;;;;17.23;27.21;97268.75;10370561;28;20068;-62
2022/04/06 10:18:06;;;;;;;2.20;1.52;;;;;;;17.52;26.79;97278.22;10370397;28;20060;-62
2022/04/06 10:23:24;;;;;;;;;;;;;;;17.72;26.65;97263.50;10371617;28;20053;-62
2022/04/06 10:28:23;;;;;;;3.05;1.85;;;;;;;17.53;26.00;97244.97;10370955;28;20030;-62
2022/04/06 10:33:22;;;;;;;;;;;;;;;17.87;25.92;97262.09;10370696;28;20068;-60
2022/04/06 10:38:22;;;;;;;3.75;1.90;;;;;;;17.34;25.47;97145.13;10375875;28;19967;-60
2022/04/06 10:43:38;;;;;;;4.85;1.90;;;;;;;18.17;26.04;97234.66;10377736;28;20072;-62
2022/04/06 10:49:06;;;;;;;2.92;1.90;;;;;;;17.88;26.99;97141.28;10378586;28;20068;-62
2022/04/06 10:54:14;;;;;;;2.53;1.98;;;;;;;18.54;26.14;97227.88;10376675;28;20495;-62
2022/04/06 10:59:17;;;;;;;2.35;1.70;;;;;;;18.17;26.20;97168.13;10377591;28;20064;-62
2022/04/06 11:04:23;;;;;;;3.00;2.20;;;;;;;17.80;26.82;97118.88;10369681;28;20068;-62
2022/04/06 11:15:00;;;;;;;5.43;2.28;;;;;;;18.72;26.97;97194.78;10365535;28;20448;-62
2022/04/06 11:20:01;;;;;;;4.03;2.38;;;;;;;19.14;27.37;97196.44;10357935;28;20420;-62
2022/04/06 11:25:00;;;;;;;4.35;2.17;;;;;;;19.20;25.25;97169.84;10371025;28;20060;-62
2022/04/06 11:30:01;;;;;;;5.45;2.63;;;;;;;19.35;25.83;97168.31;10369811;28;20080;-62
2022/04/06 11:35:05;;;;;;;4.28;2.17;;;;;;;19.08;25.34;97128.34;10335389;28;20061;-62
2022/04/06 11:40:05;;;;;;;3.00;2.22;;;;;;;19.38;25.18;97164.69;10364208;28;20063;-62
2022/04/06 11:45:05;;;;;;;5.05;2.53;;;;;;;19.16;25.51;97106.97;10375550;28;20064;-62
2022/04/06 11:50:10;;;;;;;3.00;2.50;;;;;;;19.10;25.17;97104.63;10375306;28;20337;-62
2022/04/06 11:55:09;;;;;;;4.43;2.45;;;;;;;19.21;25.04;97094.47;10373683;28;20489;-62
2022/04/06 12:00:11;;;;;;;4.82;2.63;;;;;;;19.61;24.74;97125.03;10374931;28;20079;-62
2022/04/06 12:05:10;;;;;;;5.20;2.72;;;;;;;19.86;24.78;97111.56;10375445;28;20064;-62
2022/04/06 12:10:09;;;;;;;4.43;2.45;;;;;;;19.92;24.52;97107.75;10375281;28;20115;-62
2022/04/06 12:15:09;;;;;;;5.57;2.80;;;;;;;19.61;24.97;97061.03;10374759;28;20037;-62
2022/04/06 12:20:22;;;;;;;3.33;2.42;;;;;;;20.04;24.81;97087.88;10374281;28;20056;-62
2022/04/06 12:25:35;;;;;;;3.42;2.47;;;;;;;20.26;24.19;97080.59;10374171;28;20506;-62
2022/04/06 12:30:34;;;;;;;4.28;2.53;;;;;;;20.20;23.98;97066.88;10373608;28;20072;-62
2022/04/06 12:35:33;;;;;;;4.15;2.60;;;;;;;20.31;24.15;97067.19;10373856;28;20064;-62
2022/04/06 12:40:32;;;;;;;4.47;2.40;;;;;;;20.07;23.93;97019.22;10373537;28;20063;-62
2022/04/06 12:45:47;;;;;;;6.03;2.33;;;;;;;20.53;23.93;97052.94;10373605;28;20039;-62
2022/04/06 12:50:46;;;;;;;6.75;2.70;;;;;;;20.58;22.88;97030.66;10372967;28;20486;-62
2022/04/06 12:55:45;;;;;;;5.88;2.60;;;;;;;20.89;22.86;97036.94;10373409;28;20549;-62
2022/04/06 13:00:45;;;;;;;4.45;2.30;;;;;;;21.02;22.51;97035.34;10372320;28;20425;-62
2022/04/06 13:05:44;;;;;;;10.27;3.28;;;;;;;21.25;22.61;97042.03;10372393;28;20060;-62
2022/04/06 13:10:43;;;;;;;3.13;2.40;;;;;;;21.21;21.89;97029.94;10372426;28;20112;-63
2022/04/06 13:15:42;;;;;;;3.72;2.42;;;;;;;21.42;22.47;97027.03;10372033;28;20037;-62
2022/04/06 13:20:41;;;;;;;4.43;2.50;;;;;;;21.42;22.46;97017.31;10371911;28;20031;-62
2022/04/06 13:25:42;;;;;;;3.20;1.90;;;;;;;21.18;22.22;96987.03;10371847;28;20139;-62
2022/04/06 13:30:41;;;;;;;5.00;2.40;;;;;;;21.31;22.32;97003.88;10371657;28;20067;-62
2022/04/06 13:35:40;;;;;;;2.92;2.20;;;;;;;21.45;21.23;97000.47;10371560;28;20065;-62
2022/04/06 13:40:39;;;;;;;3.90;1.63;;;;;;;21.25;21.00;96936.47;10371921;28;20032;-62
2022/04/06 13:45:38;;;;;;;5.07;2.50;;;;;;;21.63;21.16;96977.44;10371384;28;20421;-62
2022/04/06 13:50:37;;;;;;;1.73;1.38;;;;;;;21.68;20.81;96949.81;10371259;28;20425;-61
2022/04/06 13:55:36;;;;;;;1.67;1.38;;;;;;;21.95;20.21;96963.19;10370780;28;20067;-61
2022/04/06 14:00:36;;;;;;;4.00;2.20;;;;;;;21.94;21.84;96966.81;10371495;28;20033;-60
2022/04/06 14:05:35;;;;;;;3.28;1.80;;;;;;;21.36;20.55;96864.63;10371288;28;20461;-62
2022/04/06 14:10:34;;;;;;;3.60;1.80;;;;;;;21.97;20.18;96966.59;10372007;28;20463;-62
2022/04/06 14:15:33;;;;;;;3.03;1.73;;;;;;;21.24;20.16;96926.00;10379350;28;20127;-62
2022/04/06 14:20:32;;;;;;;4.13;2.10;;;;;;;21.45;20.70;96945.03;10378793;28;20067;-62
2022/04/06 14:25:31;;;;;;;3.88;2.20;;;;;;;21.02;20.88;96890.25;10378937;28;20029;-62
2022/04/06 14:30:33;;;;;;;5.63;2.50;;;;;;;21.37;20.78;96929.66;10378512;28;20056;-62
2022/04/06 14:35:33;;;;;;;5.20;2.80;;;;;;;20.99;21.07;96869.34;10378054;28;20075;-62
2022/04/06 14:40:32;;;;;;;5.32;2.20;;;;;;;21.46;20.97;96934.41;10378599;28;20059;-62
2022/04/06 14:45:31;;;;;;;3.72;2.10;;;;;;;21.11;20.97;96915.28;10378505;28;20057;-63
2022/04/06 14:50:30;;;;;;;5.82;2.22;;;;;;;20.98;20.96;96933.56;10377948;28;20080;-62
2022/04/06 14:55:29;;;;;;;3.83;2.38;;;;;;;20.51;21.39;96860.59;10377606;28;20035;-63
2022/04/06 15:00:28;;;;;;;5.82;2.35;;;;;;;20.68;21.40;96904.47;10377689;28;20370;-62
2022/04/06 15:05:28;;;;;;;4.30;1.98;;;;;;;20.75;21.21;96918.19;10374399;28;20464;-62
2022/04/06 15:10:27;;;;;;;4.30;2.15;;;;;;;20.58;21.76;96912.03;10374917;28;20065;-62
2022/04/06 15:15:27;;;;;;;5.13;1.70;;;;;;;20.28;21.28;96864.47;10375444;28;20064;-62
2022/04/06 15:20:26;;;;;;;6.40;5.75;;;;;;;20.49;21.36;96900.25;10376731;28;20048;-63
2022/04/06 15:25:25;;;;;;;5.20;2.25;;;;;;;20.50;21.63;96909.84;10376708;28;20067;-62
2022/04/06 15:30:24;;;;;;;5.80;2.17;;;;;;;19.90;21.32;96804.19;10376404;28;20025;-62
2022/04/06 15:40:40;;;;;;;3.15;2.17;;;;;;;20.71;22.58;96909.59;10376289;28;20076;-62
2022/04/06 15:45:40;;;;;;;6.47;3.03;;;;;;;20.58;23.39;96896.22;10375941;28;20056;-63
2022/04/06 15:50:39;;;;;;;6.88;3.28;;;;;;;20.31;23.59;96871.38;10375283;28;20484;-63
2022/04/06 15:55:37;;;;;;;4.72;2.72;;;;;;;20.32;23.95;96899.41;10375501;28;20468;-62
2022/04/06 16:00:36;;;;;;;4.55;2.70;;;;;;;19.24;24.61;96786.56;10374808;28;20017;-62
2022/04/06 16:05:36;;;;;;;4.65;2.67;;;;;;;19.93;24.64;96887.41;10375236;28;20115;-62
2022/04/06 16:10:35;;;;;;;9.65;4.80;;;;;;;19.67;24.74;96844.88;10374900;28;20071;-62
2022/04/06 16:15:35;;;;;;;7.25;3.40;;;;;;;19.44;25.34;96846.91;10358214;28;20510;-63
2022/04/06 16:20:35;;;;;;;9.20;3.88;;;;;;;19.55;25.91;96914.75;10333342;28;20061;-62
2022/04/06 16:25:34;;;;;;;7.75;3.53;;;;;;;19.35;26.12;96918.41;10333378;28;20065;-62
2022/04/06 16:30:34;;;;;;;10.57;4.57;;;;;;;19.05;26.32;96912.00;10364728;28;20063;-62
2022/04/06 16:35:33;;;;;;;10.95;7.75;;;;;;;18.94;26.75;96920.41;10368184;28;20083;-62
2022/04/06 16:40:32;;;;;;;10.27;6.43;;;;;;;18.53;26.83;96884.63;10368606;28;20017;-62
2022/04/06 16:45:31;;;;;;;37.75;11.45;;;;;;;18.54;27.36;96930.97;10372556;28;20069;-63
2022/04/06 16:55:47;;;;;;;24.80;9.30;;;;;;;17.81;27.99;96910.66;10369506;28;20498;-63
2022/04/06 17:00:46;;;;;;;;;;;;;;;17.65;27.99;96927.03;10369283;28;20081;-62
2022/04/06 17:05:45;;;;;;;13.10;8.07;;;;;;;17.13;27.65;96882.84;10369176;28;20445;-62
2022/04/06 17:10:45;;;;;;;6.32;3.47;;;;;;;17.29;27.78;96940.75;10370333;28;20068;-62
2022/04/06 17:15:44;;;;;;;6.30;3.63;;;;;;;17.14;27.76;96941.38;10371816;28;20076;-62
2022/04/06 17:20:43;;;;;;;;;;;;;;;17.01;27.98;96945.41;10371941;28;20033;-62
2022/04/06 17:25:44;;;;;;;8.83;5.60;;;;;;;16.51;28.47;96910.63;10371855;28;19972;-62
2022/04/06 17:30:43;;;;;;;12.05;6.60;;;;;;;16.61;28.59;96952.19;10370830;28;20064;-63
2022/04/06 17:35:43;;;;;;;;;;;;;;;16.39;29.15;96952.13;10370409;28;20116;-62
2022/04/06 17:40:41;;;;;;;21.73;13.38;;;;;;;16.12;29.34;96943.53;10364465;28;19952;-62
2022/04/06 17:45:41;;;;;;;30.35;17.15;;;;;;;16.00;29.61;96958.75;10371115;28;20090;-62
2022/04/06 17:50:40;;;;;;;;;;;;;;;15.86;29.97;96961.00;10370181;28;20134;-62
2022/04/06 17:55:39;;;;;;;30.90;13.35;;;;;;;15.32;30.03;96899.16;10370549;28;19909;-62
2022/04/06 18:00:38;;;;;;;29.50;11.85;;;;;;;15.61;30.44;96968.78;10370436;28;20510;-63
2022/04/06 18:05:39;;;;;;;22.10;11.13;;;;;;;15.12;30.28;96907.69;10370860;28;20477;-62
2022/04/06 18:15:56;;;;;;;19.55;9.25;;;;;;;15.32;30.72;96967.13;10370135;28;20064;-62
2022/04/06 18:20:59;;;;;;;22.35;11.82;;;;;;;15.25;30.65;96976.94;10369887;28;20069;-62
2022/04/06 18:25:58;;;;;;;22.50;8.23;;;;;;;15.17;30.53;96974.56;10370492;28;20067;-62
2022/04/06 18:30:58;;;;;;;;;;;;;;;15.13;30.57;96986.03;10369854;28;20064;-62
2022/04/06 18:35:58;;;;;;;11.35;5.68;;;;;;;14.39;30.74;96870.75;10368634;28;20483;-62
2022/04/06 18:40:58;;;;;;;11.07;6.07;;;;;;;14.43;30.60;96892.41;10370119;28;20530;-62
2022/04/06 18:45:56;;;;;;;10.07;5.18;;;;;;;14.94;30.90;96977.88;10369795;28;20435;-62
2022/04/06 18:50:55;;;;;;;9.38;5.35;;;;;;;14.83;31.47;96980.84;10368962;28;20511;-62
2022/04/06 18:55:55;;;;;;;9.93;5.07;;;;;;;14.77;31.43;96970.56;10369670;28;20147;-62
2022/04/06 19:00:54;;;;;;;8.13;5.07;;;;;;;14.72;31.55;96967.25;10377193;28;20060;-62
2022/04/06 19:05:53;;;;;;;9.05;4.70;;;;;;;14.67;32.02;96973.50;10376158;28;20064;-62
2022/04/06 19:10:53;;;;;;;10.18;4.90;;;;;;;14.54;32.29;96966.00;10377068;28;20033;-62
2022/04/06 19:15:52;;;;;;;10.88;3.88;;;;;;;14.49;32.19;96967.06;10377129;28;20068;-62
2022/04/06 19:20:51;;;;;;;9.20;3.53;;;;;;;14.35;32.85;96951.78;10374218;28;20075;-62
2022/04/06 19:25:50;;;;;;;9.02;5.05;;;;;;;14.43;32.92;96959.38;10376468;28;20124;-62
2022/04/06 19:30:51;;;;;;;18.08;4.28;;;;;;;14.35;33.14;96941.34;10375519;28;20059;-62
2022/04/06 19:35:50;;;;;;;10.23;4.70;;;;;;;14.23;33.66;96942.56;10375073;28;20064;-62
2022/04/06 19:40:49;;;;;;;8.85;4.30;;;;;;;14.30;33.67;96951.06;10375319;28;20053;-62
2022/04/06 19:45:48;;;;;;;9.50;5.70;;;;;;;14.15;33.88;96929.75;10375145;28;20047;-62
2022/04/06 19:50:47;;;;;;;9.75;5.13;;;;;;;13.75;34.23;96878.69;10375417;28;20047;-62
2022/04/06 19:55:46;;;;;;;7.30;4.55;;;;;;;14.18;33.93;96954.88;10375257;28;20520;-62
2022/04/06 20:00:51;;;;;;;8.60;4.30;;;;;;;14.04;34.28;96936.16;10374265;28;20481;-62
2022/04/06 20:05:50;;;;;;;8.63;4.57;;;;;;;14.16;33.94;96951.47;10374113;28;20364;-62
2022/04/06 20:10:50;;;;;;;9.07;4.63;;;;;;;14.07;33.90;96943.88;10373937;28;20478;-62
2022/04/06 20:15:48;;;;;;;;;;;;;;;14.03;33.87;96937.03;10374216;28;20064;-62
2022/04/06 20:20:47;;;;;;;7.13;4.32;;;;;;;13.72;33.98;96883.97;10373782;28;19909;-62
2022/04/06 20:25:46;;;;;;;10.32;5.28;;;;;;;13.93;34.24;96929.47;10374791;28;20562;-62
2022/04/06 20:30:45;;;;;;;9.15;5.65;;;;;;;13.87;34.20;96924.44;10372964;28;20485;-62
2022/04/06 20:35:44;;;;;;;5.93;3.40;;;;;;;13.65;34.30;96898.06;10374144;28;20036;-62
2022/04/06 20:40:43;;;;;;;8.13;4.63;;;;;;;13.17;34.68;96832.47;10373282;28;20031;-62
2022/04/06 20:45:43;;;;;;;10.57;4.85;;;;;;;13.51;34.74;96895.78;10372872;28;20451;-62
2022/04/06 20:50:43;;;;;;;9.07;4.82;;;;;;;13.24;34.36;96860.91;10372176;28;20352;-62
2022/04/06 20:55:43;;;;;;;9.07;4.78;;;;;;;13.51;34.42;96916.66;10372873;28;20493;-62
2022/04/06 21:00:43;;;;;;;11.30;4.53;;;;;;;13.31;34.75;96890.28;10372010;28;20071;-62
2022/04/06 21:05:42;;;;;;;7.55;4.22;;;;;;;13.50;34.70;96922.78;10372068;28;20072;-62
2022/04/06 21:10:41;;;;;;;9.70;4.18;;;;;;;13.42;34.85;96922.13;10371844;28;20117;-62
2022/04/06 21:15:40;;;;;;;8.35;3.95;;;;;;;13.28;35.27;96903.38;10372251;28;20123;-62
2022/04/06 21:20:38;;;;;;;7.20;3.70;;;;;;;13.08;35.50;96883.03;10371288;28;20112;-62
2022/04/06 21:25:38;;;;;;;6.88;3.67;;;;;;;13.14;35.36;96901.97;10371571;28;20076;-62
2022/04/06 21:30:37;;;;;;;;;;;;;;;13.07;35.59;96891.72;10371735;28;20477;-62
2022/04/06 21:35:35;;;;;;;6.57;3.97;;;;;;;12.53;36.19;96817.53;10371094;28;20283;-62
2022/04/06 21:40:34;;;;;;;8.15;4.85;;;;;;;12.81;36.27;96861.97;10370356;28;20513;-62
2022/04/06 21:45:33;;;;;;;8.75;4.88;;;;;;;12.90;36.58;96866.97;10371381;28;20048;-62
2022/04/06 21:50:32;;;;;;;8.82;4.97;;;;;;;12.79;36.83;96855.97;10370456;28;20566;-62
2022/04/06 21:55:31;;;;;;;9.70;5.10;;;;;;;12.78;36.82;96866.41;10370761;28;20512;-62
2022/04/06 22:00:33;;;;;;;8.48;5.00;;;;;;;12.67;37.15;96857.13;10371024;28;20483;-62
2022/04/06 22:05:32;;;;;;;7.22;5.32;;;;;;;12.62;37.40;96845.94;10367543;28;20068;-62
2022/04/06 22:10:31;;;;;;;9.70;6.20;;;;;;;12.05;38.02;96773.53;10367103;28;20039;-62
2022/04/06 22:15:31;;;;;;;9.38;5.70;;;;;;;11.99;38.53;96776.28;10368595;28;20075;-62
2022/04/06 22:20:30;;;;;;;9.27;5.35;;;;;;;11.85;39.25;96785.25;10369128;28;20056;-62
2022/04/06 22:25:29;;;;;;;8.48;5.00;;;;;;;11.91;39.31;96814.59;10369820;28;20111;-62
2022/04/06 22:30:28;;;;;;;9.40;6.10;;;;;;;11.03;40.97;96710.72;10369749;28;20033;-62
2022/04/06 22:35:27;;;;;;;11.93;6.40;;;;;;;10.96;41.38;96726.44;10376743;28;20029;-62
2022/04/06 22:40:28;;;;;;;9.27;5.82;;;;;;;11.20;41.06;96753.69;10377129;28;20056;-62
2022/04/06 22:45:28;;;;;;;12.50;6.53;;;;;;;10.93;41.12;96706.59;10378215;28;20061;-62
2022/04/06 22:50:27;;;;;;;11.45;5.97;;;;;;;11.23;41.38;96761.41;10376636;28;20077;-62
2022/04/06 22:55:26;;;;;;;9.35;5.57;;;;;;;10.73;41.79;96683.59;10377036;28;20481;-62
2022/04/06 23:00:25;;;;;;;9.80;6.38;;;;;;;10.92;41.16;96710.06;10377295;28;20479;-62
2022/04/06 23:05:24;;;;;;;9.18;5.95;;;;;;;10.66;41.71;96675.94;10376689;28;20035;-62
2022/04/06 23:10:23;;;;;;;11.50;6.40;;;;;;;10.93;42.46;96719.56;10376074;28;20435;-62
2022/04/06 23:15:22;;;;;;;9.13;5.90;;;;;;;10.48;42.70;96649.47;10376615;28;20557;-62
2022/04/06 23:20:21;;;;;;;;;;;;;;;10.87;42.94;96714.50;10376426;28;20056;-62
2022/04/06 23:25:20;;;;;;;9.95;5.53;;;;;;;10.86;43.55;96701.50;10375943;28;20365;-62
2022/04/06 23:30:19;;;;;;;10.60;5.80;;;;;;;10.83;44.23;96698.09;10375478;28;20064;-62
2022/04/06 23:35:18;;;;;;;10.32;5.90;;;;;;;10.81;44.25;96681.69;10375389;28;20090;-62